createdAt,value
2022-09-05T00:01:55.996Z,6.93
2022-09-05T00:04:23.819Z,6.80
2022-09-05T00:06:35.547Z,6.37
2022-09-05T00:08:51.227Z,6.60
2022-09-05T00:11:41.299Z,7.27
2022-09-05T00:13:31.487Z,6.30
2022-09-05T00:15:43.977Z,6.50
2022-09-05T00:19:16.160Z,7.23
2022-09-05T00:24:32.020Z,9.43
2022-09-05T00:24:33.160Z,6.77
2022-09-05T00:25:58.558Z,8.83
2022-09-05T00:28:26.883Z,7.27
2022-09-05T00:31:08.779Z,6.20
2022-09-05T00:33:29.298Z,6.67
2022-09-05T00:35:54.210Z,8.13
2022-09-05T00:37:58.573Z,6.50
2022-09-05T00:40:20.688Z,9.03
2022-09-05T00:42:24.286Z,5.80
2022-09-05T00:44:33.931Z,5.73
2022-09-05T00:46:42.516Z,5.23
2022-09-05T00:48:54.743Z,9.50
2022-09-05T00:51:16.024Z,6.03
2022-09-05T00:53:27.468Z,9.43
2022-09-05T00:55:42.027Z,7.43
2022-09-05T00:58:04.842Z,7.87
2022-09-05T01:00:17.930Z,7.03
2022-09-05T01:02:36.713Z,6.10
2022-09-05T01:05:02.870Z,7.10
2022-09-05T01:07:21.278Z,7.03
2022-09-05T01:09:31.913Z,5.93
2022-09-05T01:11:53.596Z,6.50
2022-09-05T01:14:09.232Z,10.00
2022-09-05T01:16:24.648Z,6.20
2022-09-05T01:18:43.673Z,6.50
2022-09-05T01:21:06.052Z,5.83
2022-09-05T01:23:40.451Z,6.47
2022-09-05T01:26:11.715Z,5.77
2022-09-05T01:29:15.554Z,6.73
2022-09-05T01:30:55.728Z,6.00
2022-09-05T01:33:12.150Z,5.43
2022-09-05T01:36:04.170Z,5.90
2022-09-05T01:38:14.575Z,6.17
2022-09-05T01:40:25.293Z,11.63
2022-09-05T01:42:40.385Z,6.67
2022-09-05T01:44:56.698Z,7.87
2022-09-05T01:47:10.690Z,6.80
2022-09-05T01:49:25.351Z,6.63
2022-09-05T01:51:42.772Z,7.67
2022-09-05T01:53:51.929Z,7.77
2022-09-05T01:56:26.213Z,7.37
2022-09-05T01:58:44.907Z,8.07
2022-09-05T02:00:57.823Z,6.60
2022-09-05T02:03:29.902Z,6.50
2022-09-05T02:05:52.051Z,6.33
2022-09-05T02:08:21.156Z,7.63
2022-09-05T02:10:48.077Z,6.33
2022-09-05T02:13:02.800Z,6.20
2022-09-05T02:15:11.310Z,7.53
2022-09-05T02:17:49.681Z,6.13
2022-09-05T02:19:54.469Z,9.80
2022-09-05T02:22:04.104Z,6.80
2022-09-05T02:24:15.145Z,7.10
2022-09-05T02:26:24.261Z,6.10
2022-09-05T02:28:37.022Z,6.83
2022-09-05T02:30:59.197Z,7.70
2022-09-05T02:33:22.573Z,5.63
2022-09-05T02:35:33.156Z,7.90
2022-09-05T02:40:15.309Z,6.10
2022-09-05T02:45:02.920Z,10.80
2022-09-05T02:45:07.952Z,5.50
2022-09-05T02:45:26.732Z,6.00
2022-09-05T02:47:38.961Z,5.90
2022-09-05T02:51:15.885Z,6.07
2022-09-05T02:57:25.002Z,6.03
2022-09-05T02:57:37.799Z,6.47
2022-09-05T02:57:41.150Z,6.53
2022-09-05T03:00:03.504Z,6.70
2022-09-05T03:02:25.351Z,6.30
2022-09-05T03:04:37.121Z,6.37
2022-09-05T03:06:50.674Z,6.87
2022-09-05T03:09:17.329Z,6.67
2022-09-05T03:12:15.065Z,10.50
2022-09-05T03:15:22.306Z,7.37
2022-09-05T03:18:20.892Z,8.33
2022-09-05T03:20:54.455Z,7.07
2022-09-05T03:24:07.143Z,7.53
2022-09-05T03:26:34.112Z,6.47
2022-09-05T03:29:06.274Z,6.23
2022-09-05T03:31:27.411Z,7.47
2022-09-05T03:33:56.195Z,7.40
2022-09-05T03:36:28.343Z,6.33
2022-09-05T03:39:15.142Z,6.10
2022-09-05T03:41:40.622Z,6.77
2022-09-05T03:44:10.294Z,7.50
2022-09-05T03:46:29.175Z,7.70
2022-09-05T03:48:50.950Z,6.00
2022-09-05T03:57:06.998Z,6.90
2022-09-05T03:57:17.820Z,7.10
2022-09-05T03:57:25.424Z,7.20
2022-09-05T03:59:31.780Z,8.47
2022-09-05T04:04:37.940Z,7.03
2022-09-05T04:08:15.459Z,9.30
2022-09-05T04:08:27.805Z,6.70
2022-09-05T04:09:10.878Z,8.57
2022-09-05T04:11:18.331Z,7.63
2022-09-05T04:13:28.459Z,7.20
2022-09-05T04:15:42.053Z,7.07
2022-09-05T04:17:49.281Z,6.00
2022-09-05T04:20:00.249Z,6.97
2022-09-05T04:22:16.452Z,7.97
2022-09-05T04:24:30.405Z,6.90
2022-09-05T04:27:06.250Z,7.10
2022-09-05T04:29:20.941Z,9.60
2022-09-05T04:31:37.921Z,7.77
2022-09-05T04:33:55.109Z,7.03
2022-09-05T04:36:12.070Z,7.30
2022-09-05T04:38:38.735Z,7.80
2022-09-05T04:40:46.463Z,11.47
2022-09-05T04:42:50.947Z,7.77
2022-09-05T04:45:01.967Z,11.80
2022-09-05T04:47:10.914Z,7.63
2022-09-05T04:49:18.969Z,8.20
2022-09-05T04:52:00.778Z,9.20
2022-09-05T04:54:18.718Z,8.80
2022-09-05T04:56:27.631Z,9.60
2022-09-05T04:59:14.533Z,12.17
2022-09-05T05:06:03.996Z,11.30
2022-09-05T05:06:09.089Z,11.10
2022-09-05T05:06:31.646Z,10.37
2022-09-05T05:08:38.255Z,11.43
2022-09-05T05:16:00.311Z,12.13
2022-09-05T05:17:56.011Z,10.10
2022-09-05T05:18:06.251Z,12.67
2022-09-05T05:18:39.373Z,9.93
2022-09-05T05:20:58.055Z,12.00
2022-09-05T05:23:08.061Z,10.83
2022-09-05T05:25:13.208Z,12.00
2022-09-05T05:27:21.472Z,10.17
2022-09-05T05:29:30.469Z,11.73
2022-09-05T05:31:36.729Z,10.40
2022-09-05T05:33:42.610Z,11.27
2022-09-05T05:35:49.933Z,12.10
2022-09-05T05:37:57.630Z,10.53
2022-09-05T05:40:08.650Z,9.20
2022-09-05T05:42:20.591Z,7.37
2022-09-05T05:44:27.423Z,11.57
2022-09-05T05:46:39.441Z,8.03
2022-09-05T05:48:57.002Z,7.80
2022-09-05T05:51:34.778Z,8.97
2022-09-05T05:53:55.339Z,7.30
2022-09-05T05:56:19.960Z,5.07
2022-09-05T05:58:50.770Z,6.53
2022-09-05T06:01:40.996Z,5.40
2022-09-05T06:04:07.897Z,13.77
2022-09-05T06:06:25.250Z,5.10
2022-09-05T06:12:38.783Z,6.80
2022-09-05T06:14:58.262Z,5.83
2022-09-05T06:15:09.385Z,5.47
2022-09-05T06:17:40.513Z,7.20
2022-09-05T06:21:38.998Z,5.63
2022-09-05T06:22:40.452Z,8.03
2022-09-05T06:25:25.419Z,6.53
2022-09-05T06:27:43.915Z,5.27
2022-09-05T06:30:10.038Z,6.17
2022-09-05T06:32:28.603Z,7.00
2022-09-05T06:34:45.366Z,5.00
2022-09-05T06:36:57.644Z,5.43
2022-09-05T06:39:11.406Z,8.43
2022-09-05T06:41:23.109Z,4.13
2022-09-05T06:43:32.507Z,7.10
2022-09-05T06:45:43.163Z,3.93
2022-09-05T06:47:56.936Z,5.10
2022-09-05T06:50:24.534Z,4.40
2022-09-05T06:53:10.922Z,5.13
2022-09-05T06:55:47.246Z,4.40
2022-09-05T06:58:22.790Z,4.40
2022-09-05T07:00:29.584Z,5.03
2022-09-05T07:03:00.231Z,6.40
2022-09-05T07:05:38.524Z,4.00
2022-09-05T07:07:40.349Z,3.63
2022-09-05T07:10:03.870Z,4.50
2022-09-05T07:12:21.140Z,3.63
2022-09-05T07:14:29.046Z,4.90
2022-09-05T07:16:47.760Z,5.03
2022-09-05T07:19:03.174Z,7.40
2022-09-05T07:21:17.439Z,4.30
2022-09-05T07:24:06.701Z,6.60
2022-09-05T07:25:59.747Z,3.50
2022-09-05T07:28:26.302Z,4.07
2022-09-05T07:30:34.338Z,3.70
2022-09-05T07:32:42.901Z,3.20
2022-09-05T07:34:48.839Z,2.50
2022-09-05T07:37:13.845Z,3.00
2022-09-05T07:39:28.799Z,3.30
2022-09-05T07:41:39.651Z,3.70
2022-09-05T07:43:46.833Z,4.23
2022-09-05T07:45:57.307Z,2.50
2022-09-05T07:48:04.676Z,3.03
2022-09-05T07:54:18.123Z,2.87
2022-09-05T07:56:48.138Z,3.17
2022-09-05T07:57:08.504Z,4.30
2022-09-05T07:57:40.884Z,1.90
2022-09-05T07:59:56.951Z,2.70
2022-09-05T08:02:01.613Z,2.00
2022-09-05T08:04:05.658Z,2.17
2022-09-05T08:06:14.547Z,2.70
2022-09-05T08:09:18.468Z,2.23
2022-09-05T08:11:25.744Z,7.57
2022-09-05T08:13:56.231Z,2.20
2022-09-05T08:16:22.764Z,1.67
2022-09-05T08:18:35.408Z,3.00
2022-09-05T08:20:44.331Z,2.40
2022-09-05T08:22:52.548Z,2.53
2022-09-05T08:25:02.464Z,2.43
2022-09-05T08:27:16.700Z,3.20
2022-09-05T08:29:31.980Z,2.60
2022-09-05T08:31:42.120Z,2.33
2022-09-05T08:33:48.443Z,2.50
2022-09-05T08:35:59.309Z,3.33
2022-09-05T08:38:05.692Z,4.03
2022-09-05T08:40:19.704Z,2.87
2022-09-05T08:42:33.369Z,2.50
2022-09-05T08:46:43.694Z,4.20
2022-09-05T08:47:33.078Z,2.87
2022-09-05T08:49:58.115Z,2.60
2022-09-05T08:52:09.877Z,3.10
2022-09-05T08:54:27.143Z,2.73
2022-09-05T08:56:38.813Z,3.30
2022-09-05T08:59:27.573Z,3.87
2022-09-05T09:01:39.522Z,2.93
2022-09-05T09:04:11.420Z,3.20
2022-09-05T09:06:38.034Z,2.93
2022-09-05T09:09:05.304Z,3.50
2022-09-05T09:11:21.759Z,3.60
2022-09-05T09:13:36.562Z,3.30
2022-09-05T09:15:46.445Z,2.97
2022-09-05T09:17:52.394Z,4.73
2022-09-05T09:20:11.962Z,3.23
2022-09-05T09:22:25.254Z,4.10
2022-09-05T09:24:38.608Z,5.10
2022-09-05T09:26:51.193Z,3.40
2022-09-05T09:29:00.820Z,5.53
2022-09-05T09:31:12.078Z,3.30
2022-09-05T09:33:27.241Z,5.17
2022-09-05T09:35:45.530Z,3.13
2022-09-05T09:38:06.967Z,3.23
2022-09-05T09:41:00.386Z,3.20
2022-09-05T09:43:17.728Z,3.60
2022-09-05T09:45:41.564Z,2.80
2022-09-05T09:48:36.360Z,3.07
2022-09-05T09:51:00.275Z,5.70
2022-09-05T09:53:27.634Z,2.80
2022-09-05T09:56:10.123Z,3.17
2022-09-05T09:58:47.079Z,3.63
2022-09-05T10:00:54.885Z,3.50
2022-09-05T10:10:14.932Z,3.07
2022-09-05T10:10:48.638Z,11.30
2022-09-05T10:10:52.717Z,2.53
2022-09-05T10:11:53.703Z,2.90
2022-09-05T10:15:07.333Z,3.03
2022-09-05T10:17:53.306Z,2.20
2022-09-05T10:20:12.064Z,3.00
2022-09-05T10:22:40.335Z,2.83
2022-09-05T10:25:18.723Z,3.50
2022-09-05T10:27:48.240Z,7.83
2022-09-05T10:30:06.305Z,3.00
2022-09-05T10:35:11.616Z,3.47
2022-09-05T10:35:13.337Z,3.27
2022-09-05T10:37:14.260Z,5.73
2022-09-05T10:39:23.948Z,8.43
2022-09-05T10:41:42.255Z,4.20
2022-09-05T10:43:50.977Z,3.60
2022-09-05T10:46:05.475Z,3.77
2022-09-05T10:48:19.636Z,4.13
2022-09-05T10:50:30.042Z,4.53
2022-09-05T10:52:37.907Z,4.00
2022-09-05T10:54:57.582Z,4.77
2022-09-05T10:57:33.721Z,4.63
2022-09-05T11:02:16.195Z,5.97
2022-09-05T11:02:34.713Z,4.73
2022-09-05T11:04:50.252Z,5.30
2022-09-05T11:06:59.090Z,5.20
2022-09-05T11:09:12.224Z,6.17
2022-09-05T11:11:34.221Z,5.63
2022-09-05T11:13:46.360Z,5.33
2022-09-05T11:16:12.781Z,5.93
2022-09-05T11:18:19.576Z,4.70
2022-09-05T11:20:45.374Z,5.37
2022-09-05T11:22:50.393Z,4.60
2022-09-05T11:24:57.426Z,4.70
2022-09-05T11:27:23.517Z,4.60
2022-09-05T11:29:36.751Z,5.00
2022-09-05T11:37:30.723Z,4.87
2022-09-05T11:39:54.234Z,4.57
2022-09-05T11:40:06.719Z,6.23
2022-09-05T11:41:01.116Z,4.57
2022-09-05T11:43:35.578Z,4.53
2022-09-05T11:46:11.039Z,3.90
2022-09-05T11:48:28.142Z,4.70
2022-09-05T11:51:03.378Z,7.70
2022-09-05T11:53:47.348Z,4.20
2022-09-05T11:56:09.226Z,4.70
2022-09-05T11:58:44.792Z,6.77
2022-09-05T12:01:42.284Z,5.10
2022-09-05T12:03:59.393Z,4.07
2022-09-05T12:06:39.311Z,5.53
2022-09-05T12:08:55.912Z,4.50
2022-09-05T12:11:09.982Z,4.30
2022-09-05T12:13:45.524Z,4.37
2022-09-05T12:16:08.126Z,5.47
2022-09-05T12:18:21.632Z,5.60
2022-09-05T12:20:37.515Z,5.63
2022-09-05T12:22:53.959Z,4.17
2022-09-05T12:26:06.767Z,3.90
2022-09-05T12:27:59.946Z,7.53
2022-09-05T12:30:23.574Z,4.97
2022-09-05T12:36:08.455Z,4.17
2022-09-05T12:36:08.830Z,4.77
2022-09-05T12:40:03.078Z,4.33
2022-09-05T12:41:33.647Z,4.73
2022-09-05T12:42:49.804Z,7.10
2022-09-05T12:45:11.100Z,83.23
2022-09-05T12:47:22.932Z,32.57
2022-09-05T12:49:37.886Z,12.00
2022-09-05T12:51:55.022Z,7.70
2022-09-05T12:54:02.969Z,5.30
2022-09-05T12:58:40.616Z,6.13
2022-09-05T13:03:04.284Z,5.60
2022-09-05T13:03:08.457Z,4.70
2022-09-05T13:04:15.891Z,5.13
2022-09-05T13:06:25.433Z,6.83
2022-09-05T13:08:44.102Z,5.60
2022-09-05T13:14:47.056Z,5.60
2022-09-05T13:15:01.356Z,7.03
2022-09-05T13:15:51.201Z,6.40
2022-09-05T13:18:02.996Z,8.20
2022-09-05T13:20:18.198Z,7.83
2022-09-05T13:22:24.560Z,6.00
2022-09-05T13:24:34.327Z,7.83
2022-09-05T13:26:40.163Z,5.70
2022-09-05T13:28:51.535Z,5.50
2022-09-05T13:37:54.400Z,8.20
2022-09-05T13:38:10.926Z,13.40
2022-09-05T13:38:11.852Z,5.67
2022-09-05T13:38:50.310Z,5.37
2022-09-05T13:40:58.414Z,5.70
2022-09-05T13:43:13.096Z,5.70
2022-09-05T13:45:19.149Z,5.70
2022-09-05T13:47:51.017Z,6.27
2022-09-05T13:50:07.355Z,6.10
2022-09-05T13:52:28.278Z,6.70
2022-09-05T13:54:39.408Z,5.80
2022-09-05T13:56:50.768Z,5.77
2022-09-05T13:59:02.069Z,6.90
2022-09-05T14:02:24.499Z,7.47
2022-09-05T14:07:46.641Z,6.50
2022-09-05T14:10:05.620Z,5.40
2022-09-05T14:12:15.802Z,6.00
2022-09-05T14:16:56.020Z,7.40
2022-09-05T14:19:17.617Z,5.90
2022-09-05T14:21:21.681Z,6.93
2022-09-05T14:23:31.823Z,5.70
2022-09-05T14:25:39.632Z,6.40
2022-09-05T14:27:46.200Z,6.70
2022-09-05T14:29:52.221Z,6.00
2022-09-05T14:37:35.181Z,4.97
2022-09-05T14:37:39.370Z,7.00
2022-09-05T14:37:48.279Z,5.43
2022-09-05T14:40:38.505Z,5.73
2022-09-05T14:43:07.383Z,6.03
2022-09-05T14:45:46.151Z,6.77
2022-09-05T14:48:24.878Z,8.87
2022-09-05T14:50:50.937Z,5.67
2022-09-05T14:55:28.786Z,4.90
2022-09-05T15:02:55.254Z,8.30
2022-09-05T15:02:58.485Z,6.80
2022-09-05T15:03:00.581Z,7.53
2022-09-05T15:04:56.718Z,5.73
2022-09-05T15:07:07.039Z,6.23
2022-09-05T15:12:15.230Z,6.90
2022-09-05T15:12:23.312Z,5.90
2022-09-05T15:14:03.644Z,6.30
2022-09-05T15:16:10.094Z,7.20
2022-09-05T15:18:20.116Z,6.10
2022-09-05T15:20:33.318Z,6.70
2022-09-05T15:22:38.560Z,6.13
2022-09-05T15:24:41.858Z,4.73
2022-09-05T15:26:54.553Z,5.00
2022-09-05T15:29:13.760Z,5.67
2022-09-05T15:31:24.941Z,5.30
2022-09-05T15:33:31.401Z,6.70
2022-09-05T15:35:38.088Z,5.53
2022-09-05T15:37:43.707Z,5.50
2022-09-05T15:39:47.135Z,10.00
2022-09-05T15:41:53.032Z,6.43
2022-09-05T15:44:03.881Z,6.00
2022-09-05T15:46:13.686Z,7.23
2022-09-05T15:48:26.532Z,5.50
2022-09-05T15:50:45.428Z,6.10
2022-09-05T15:52:52.736Z,6.00
2022-09-05T15:55:04.007Z,6.43
2022-09-05T15:57:18.094Z,5.27
2022-09-05T15:59:26.194Z,7.97
2022-09-05T16:01:53.673Z,6.33
2022-09-05T16:06:06.942Z,7.30
2022-09-05T16:10:37.856Z,6.30
2022-09-05T16:10:42.033Z,7.07
2022-09-05T16:12:06.281Z,6.60
2022-09-05T16:14:11.419Z,7.13
2022-09-05T16:20:11.620Z,6.60
2022-09-05T16:23:26.985Z,6.67
2022-09-05T16:23:33.822Z,7.10
2022-09-05T16:23:42.016Z,7.50
2022-09-05T16:25:49.893Z,6.90
2022-09-05T16:27:58.156Z,9.60
2022-09-05T16:30:04.127Z,6.80
2022-09-05T16:32:27.561Z,7.00
2022-09-05T16:34:36.686Z,10.93
2022-09-05T16:36:54.770Z,7.17
2022-09-05T16:39:17.088Z,7.23
2022-09-05T16:41:24.937Z,7.33
2022-09-05T16:43:32.117Z,8.27
2022-09-05T16:45:45.813Z,6.73
2022-09-05T16:47:57.045Z,8.03
2022-09-05T16:50:05.846Z,7.90
2022-09-05T16:52:22.781Z,7.90
2022-09-05T16:54:31.986Z,9.33
2022-09-05T16:56:41.021Z,7.97
2022-09-05T16:58:49.347Z,11.93
2022-09-05T17:01:21.624Z,8.53
2022-09-05T17:03:35.783Z,7.50
2022-09-05T17:05:46.499Z,8.70
2022-09-05T17:08:05.114Z,9.70
2022-09-05T17:10:10.689Z,9.00
2022-09-05T17:12:21.901Z,9.03
2022-09-05T17:14:28.919Z,8.60
2022-09-05T17:16:38.398Z,8.40
2022-09-05T17:18:43.739Z,8.73
2022-09-05T17:20:50.821Z,9.50
2022-09-05T17:29:20.232Z,9.50
2022-09-05T17:29:27.606Z,8.87
2022-09-05T17:29:49.406Z,8.80
2022-09-05T17:32:48.442Z,9.00
2022-09-05T17:35:17.484Z,10.43
2022-09-05T17:38:04.322Z,9.77
2022-09-05T17:40:51.665Z,9.30
2022-09-05T17:42:59.872Z,9.23
2022-09-05T17:45:14.170Z,9.60
2022-09-05T17:47:35.535Z,8.70
2022-09-05T17:49:45.248Z,8.70
2022-09-05T17:52:18.402Z,8.70
2022-09-05T17:54:28.829Z,10.17
2022-09-05T17:56:36.341Z,9.13
2022-09-05T17:58:49.092Z,8.50
2022-09-05T18:01:19.240Z,9.27
2022-09-05T18:04:08.599Z,9.40
2022-09-05T18:06:43.609Z,8.80
2022-09-05T18:08:56.773Z,9.00
2022-09-05T18:11:02.727Z,9.47
2022-09-05T18:13:32.625Z,9.10
2022-09-05T18:16:11.007Z,10.17
2022-09-05T18:19:28.866Z,10.80
2022-09-05T18:21:12.202Z,11.47
2022-09-05T18:23:54.405Z,10.37
2022-09-05T18:26:04.374Z,11.30
2022-09-05T18:28:23.558Z,11.07
2022-09-05T18:32:45.580Z,12.00
2022-09-05T18:35:12.140Z,10.83
2022-09-05T18:37:52.072Z,11.30
2022-09-05T18:40:08.244Z,11.87
2022-09-05T18:42:33.502Z,11.80
2022-09-05T18:44:44.824Z,13.40
2022-09-05T18:46:50.389Z,11.57
2022-09-05T18:49:53.216Z,20.20
2022-09-05T18:51:27.057Z,16.27
2022-09-05T18:53:39.626Z,17.83
2022-09-05T18:56:12.554Z,47.97
2022-09-05T18:58:27.854Z,35.30
2022-09-05T19:00:44.561Z,31.00
2022-09-05T19:02:58.804Z,23.50
2022-09-05T19:05:15.714Z,24.60
2022-09-05T19:07:23.518Z,23.17
2022-09-05T19:09:30.042Z,21.13
2022-09-05T19:11:52.687Z,19.03
2022-09-05T19:14:25.471Z,16.23
2022-09-05T19:16:43.169Z,19.77
2022-09-05T19:19:07.066Z,21.03
2022-09-05T19:21:16.718Z,22.10
2022-09-05T19:23:24.255Z,19.00
2022-09-05T19:25:31.476Z,21.10
2022-09-05T19:31:58.118Z,20.63
2022-09-05T19:37:07.577Z,23.70
2022-09-05T19:37:15.101Z,23.73
2022-09-05T19:37:25.475Z,21.87
2022-09-05T19:37:33.021Z,18.80
2022-09-05T19:43:24.171Z,19.93
2022-09-05T19:47:29.846Z,21.63
2022-09-05T19:47:34.074Z,19.80
2022-09-05T19:47:40.061Z,21.63
2022-09-05T19:49:30.918Z,21.47
2022-09-05T19:51:35.124Z,20.03
2022-09-05T19:53:47.474Z,19.60
2022-09-05T19:55:53.940Z,18.67
2022-09-05T19:58:19.811Z,17.87
2022-09-05T20:00:27.000Z,17.10
2022-09-05T20:02:33.242Z,18.27
2022-09-05T20:04:40.223Z,21.20
2022-09-05T20:06:44.343Z,19.33
2022-09-05T20:08:47.820Z,22.00
2022-09-05T20:11:01.868Z,20.07
2022-09-05T20:13:22.259Z,19.30
2022-09-05T20:15:36.171Z,18.17
2022-09-05T20:17:43.289Z,20.33
2022-09-05T20:19:46.991Z,20.03
2022-09-05T20:21:53.790Z,20.10
2022-09-05T20:24:00.398Z,19.97
2022-09-05T20:26:03.894Z,16.60
2022-09-05T20:28:10.160Z,20.07
2022-09-05T20:30:19.302Z,18.33
2022-09-05T20:32:39.514Z,18.33
2022-09-05T20:35:40.758Z,17.60
2022-09-05T20:43:12.569Z,16.07
2022-09-05T20:43:27.820Z,18.63
2022-09-05T20:43:30.868Z,17.53
2022-09-05T20:44:39.849Z,19.07
2022-09-05T20:48:42.091Z,19.33
2022-09-05T20:54:13.191Z,20.33
2022-09-05T20:54:14.630Z,17.53
2022-09-05T20:54:31.682Z,19.30
2022-09-05T20:56:34.350Z,17.87
2022-09-05T20:58:40.495Z,20.33
2022-09-05T21:01:19.947Z,20.77
2022-09-05T21:03:11.654Z,19.67
2022-09-05T21:05:27.923Z,19.13
2022-09-05T21:07:35.643Z,21.13
2022-09-05T21:09:55.118Z,20.30
2022-09-05T21:12:06.071Z,19.03
2022-09-05T21:14:19.307Z,18.10
2022-09-05T21:16:29.199Z,16.43
2022-09-05T21:18:34.276Z,17.23
2022-09-05T21:20:40.627Z,17.63
2022-09-05T21:22:45.155Z,19.60
2022-09-05T21:24:48.670Z,20.00
2022-09-05T21:26:52.340Z,20.20
2022-09-05T21:29:05.346Z,19.37
2022-09-05T21:31:15.162Z,19.60
2022-09-05T21:33:28.638Z,21.93
2022-09-05T21:35:50.556Z,27.70
2022-09-05T21:37:55.086Z,22.97
2022-09-05T21:40:00.907Z,21.77
2022-09-05T21:42:42.797Z,21.17
2022-09-05T21:47:42.055Z,22.27
2022-09-05T21:47:44.823Z,25.27
2022-09-05T21:49:19.356Z,23.50
2022-09-05T21:51:26.283Z,24.77
2022-09-05T21:58:32.129Z,26.60
2022-09-05T21:59:21.454Z,25.50
2022-09-05T21:59:33.070Z,27.83
2022-09-05T22:00:45.746Z,27.37
2022-09-05T22:02:49.869Z,26.10
2022-09-05T22:05:03.185Z,25.33
2022-09-05T22:07:08.457Z,24.40
2022-09-05T22:09:14.412Z,26.27
2022-09-05T22:11:17.863Z,25.37
2022-09-05T22:13:21.620Z,24.20
2022-09-05T22:15:28.152Z,23.30
2022-09-05T22:17:32.787Z,22.50
2022-09-05T22:19:38.091Z,21.97
2022-09-05T22:21:41.851Z,21.97
2022-09-05T22:23:50.588Z,22.70
2022-09-05T22:25:54.353Z,21.50
2022-09-05T22:28:06.474Z,20.80
2022-09-05T22:30:11.086Z,21.90
2022-09-05T22:32:15.719Z,21.30
2022-09-05T22:34:19.310Z,22.07
2022-09-05T22:36:23.008Z,23.83
2022-09-05T22:38:26.878Z,22.50
2022-09-05T22:40:33.182Z,21.13
2022-09-05T22:42:36.954Z,21.23
2022-09-05T22:44:41.997Z,22.53
2022-09-05T22:46:45.633Z,19.13
2022-09-05T22:48:49.389Z,20.63
2022-09-05T22:50:53.323Z,25.40
2022-09-05T22:52:56.794Z,21.40
2022-09-05T22:55:00.524Z,21.00
2022-09-05T22:57:06.163Z,21.03
2022-09-05T22:59:14.842Z,21.20
2022-09-05T23:01:18.286Z,18.87
2022-09-05T23:03:22.052Z,22.20
2022-09-05T23:05:25.449Z,24.60
2022-09-05T23:07:29.123Z,22.77
2022-09-05T23:09:32.520Z,25.57
2022-09-05T23:11:36.027Z,22.80
2022-09-05T23:13:41.145Z,21.90
2022-09-05T23:15:44.602Z,22.60
2022-09-05T23:17:54.803Z,22.90
2022-09-05T23:19:58.109Z,21.63
2022-09-05T23:22:02.300Z,22.57
2022-09-05T23:24:06.013Z,24.07
2022-09-05T23:26:11.287Z,23.70
2022-09-05T23:28:14.813Z,23.13
2022-09-05T23:30:19.860Z,23.00
2022-09-05T23:32:23.276Z,23.67
2022-09-05T23:34:26.949Z,23.93
2022-09-05T23:36:31.763Z,23.83
2022-09-05T23:38:36.050Z,22.30
2022-09-05T23:40:40.119Z,22.07
2022-09-05T23:42:43.494Z,22.60
2022-09-05T23:44:46.799Z,22.27
2022-09-05T23:46:54.494Z,25.40
2022-09-05T23:48:57.766Z,21.33
2022-09-05T23:51:06.997Z,17.93
2022-09-05T23:53:10.493Z,22.47
2022-09-05T23:55:15.435Z,23.33
2022-09-05T23:57:24.595Z,21.03
2022-09-05T23:59:29.017Z,22.10
